createdAt,value
2022-08-05T00:01:36.390Z,86.71
2022-08-05T00:04:17.089Z,87.98
2022-08-05T00:06:44.148Z,87.84
2022-08-05T00:09:12.618Z,88.17
2022-08-05T00:11:49.159Z,88.30
2022-08-05T00:14:22.712Z,88.66
2022-08-05T00:16:55.764Z,88.64
2022-08-05T00:19:23.316Z,88.54
2022-08-05T00:21:51.741Z,87.61
2022-08-05T00:24:24.675Z,87.73
2022-08-05T00:26:58.614Z,87.73
2022-08-05T00:29:26.040Z,86.62
2022-08-05T00:32:12.410Z,88.38
2022-08-05T00:35:03.455Z,89.96
2022-08-05T00:37:50.695Z,89.61
2022-08-05T00:40:17.850Z,90.55
2022-08-05T00:42:54.818Z,92.00
2022-08-05T00:45:28.248Z,91.25
2022-08-05T00:48:09.279Z,92.17
2022-08-05T00:50:37.326Z,92.42
2022-08-05T00:53:16.070Z,93.77
2022-08-05T00:55:50.796Z,94.38
2022-08-05T00:58:19.141Z,93.55
2022-08-05T01:00:47.357Z,93.10
2022-08-05T01:03:22.899Z,93.21
2022-08-05T01:05:54.510Z,92.88
2022-08-05T01:08:41.597Z,93.81
2022-08-05T01:11:22.525Z,94.28
2022-08-05T01:14:09.416Z,95.58
2022-08-05T01:17:00.463Z,95.68
2022-08-05T01:19:57.058Z,95.59
2022-08-05T01:22:46.844Z,95.64
2022-08-05T01:25:53.792Z,97.37
2022-08-05T01:28:39.419Z,97.68
2022-08-05T01:31:27.245Z,97.38
2022-08-05T01:34:13.005Z,98.16
2022-08-05T01:36:46.974Z,98.87
2022-08-05T01:39:16.283Z,98.86
2022-08-05T01:42:03.452Z,99.28
2022-08-05T01:44:34.452Z,98.57
2022-08-05T01:47:02.609Z,98.32
2022-08-05T01:50:01.494Z,97.88
2022-08-05T01:52:21.456Z,97.67
2022-08-05T01:54:58.427Z,95.22
2022-08-05T01:58:09.845Z,95.35
2022-08-05T02:00:18.876Z,95.64
2022-08-05T02:02:53.708Z,95.69
2022-08-05T02:05:23.714Z,93.10
2022-08-05T02:07:59.828Z,92.85
2022-08-05T02:10:32.578Z,92.81
2022-08-05T02:13:27.754Z,93.42
2022-08-05T02:16:16.307Z,93.38
2022-08-05T02:18:50.940Z,94.36
2022-08-05T02:21:20.344Z,95.05
2022-08-05T02:23:50.656Z,95.22
2022-08-05T02:26:23.206Z,96.10
2022-08-05T02:28:55.297Z,97.04
2022-08-05T02:31:28.308Z,98.58
2022-08-05T02:33:58.652Z,97.87
2022-08-05T02:36:27.254Z,96.87
2022-08-05T02:38:55.935Z,96.99
2022-08-05T02:41:28.958Z,96.29
2022-08-05T02:44:11.984Z,95.86
2022-08-05T02:46:53.179Z,96.87
2022-08-05T02:49:35.768Z,96.99
2022-08-05T02:52:06.414Z,96.11
2022-08-05T02:54:37.037Z,98.33
2022-08-05T02:57:10.320Z,97.66
2022-08-05T02:59:55.736Z,97.47
2022-08-05T03:02:29.425Z,97.22
2022-08-05T03:04:57.695Z,97.49
2022-08-05T03:07:48.519Z,95.17
2022-08-05T03:10:15.677Z,94.98
2022-08-05T03:12:49.506Z,96.06
2022-08-05T03:15:18.682Z,96.77
2022-08-05T03:17:45.348Z,96.78
2022-08-05T03:20:13.433Z,96.80
2022-08-05T03:22:44.038Z,96.46
2022-08-05T03:25:33.476Z,97.16
2022-08-05T03:28:07.208Z,96.02
2022-08-05T03:30:35.816Z,94.01
2022-08-05T03:33:03.859Z,93.16
2022-08-05T03:35:41.130Z,92.64
2022-08-05T03:38:11.100Z,95.13
2022-08-05T03:40:45.304Z,95.29
2022-08-05T03:44:08.040Z,94.19
2022-08-05T03:46:03.958Z,92.80
2022-08-05T03:48:30.992Z,93.75
2022-08-05T03:52:37.822Z,93.74
2022-08-05T03:55:34.250Z,94.49
2022-08-05T03:56:58.909Z,95.93
2022-08-05T03:59:47.262Z,96.65
2022-08-05T04:02:37.961Z,95.75
2022-08-05T04:05:12.965Z,95.27
2022-08-05T04:07:57.165Z,94.41
2022-08-05T04:10:33.249Z,93.67
2022-08-05T04:13:04.743Z,91.86
2022-08-05T04:15:32.953Z,92.21
2022-08-05T04:18:09.738Z,93.50
2022-08-05T04:20:38.606Z,92.94
2022-08-05T04:23:12.458Z,93.79
2022-08-05T04:25:57.715Z,94.19
2022-08-05T04:28:30.659Z,94.47
2022-08-05T04:31:01.094Z,95.66
2022-08-05T04:34:18.479Z,96.13
2022-08-05T04:36:45.872Z,97.21
2022-08-05T04:39:02.401Z,96.44
2022-08-05T04:41:36.575Z,98.23
2022-08-05T04:44:09.311Z,98.04
2022-08-05T04:46:36.791Z,99.60
2022-08-05T04:49:03.547Z,98.23
2022-08-05T04:51:30.416Z,97.78
2022-08-05T04:53:57.579Z,98.00
2022-08-05T04:56:34.628Z,99.21
2022-08-05T04:59:22.429Z,100.00
2022-08-05T05:02:07.625Z,100.00
2022-08-05T05:04:38.120Z,99.17
2022-08-05T05:07:05.313Z,98.30
2022-08-05T05:09:37.493Z,98.07
2022-08-05T05:12:05.255Z,97.79
2022-08-05T05:14:33.025Z,98.75
2022-08-05T05:17:03.572Z,97.43
2022-08-05T05:19:36.822Z,97.53
2022-08-05T05:22:22.661Z,98.25
2022-08-05T05:25:01.428Z,97.33
2022-08-05T05:27:48.579Z,95.59
2022-08-05T05:30:29.830Z,97.19
2022-08-05T05:33:00.548Z,97.25
2022-08-05T05:35:31.624Z,96.48
2022-08-05T05:38:06.407Z,97.91
2022-08-05T05:40:36.299Z,98.87
2022-08-05T05:43:03.262Z,98.72
2022-08-05T05:45:30.003Z,98.71
2022-08-05T05:48:07.140Z,99.34
2022-08-05T05:50:43.857Z,98.71
2022-08-05T05:53:21.123Z,98.86
2022-08-05T05:55:51.769Z,97.99
2022-08-05T05:58:30.257Z,98.06
2022-08-05T06:01:04.896Z,97.88
2022-08-05T06:04:01.199Z,96.28
2022-08-05T06:06:30.994Z,96.87
2022-08-05T06:09:00.414Z,98.17
2022-08-05T06:11:29.009Z,97.08
2022-08-05T06:13:56.301Z,96.85
2022-08-05T06:16:28.194Z,97.59
2022-08-05T06:19:01.198Z,97.61
2022-08-05T06:21:36.569Z,98.34
2022-08-05T06:24:11.989Z,99.05
2022-08-05T06:26:51.256Z,99.11
2022-08-05T06:29:43.206Z,98.86
2022-08-05T06:32:20.984Z,97.92
2022-08-05T06:34:48.617Z,96.85
2022-08-05T06:37:56.725Z,95.52
2022-08-05T06:40:07.498Z,95.48
2022-08-05T06:42:34.220Z,93.80
2022-08-05T06:45:05.291Z,93.25
2022-08-05T06:48:37.045Z,92.99
2022-08-05T06:50:19.797Z,92.39
2022-08-05T06:52:58.839Z,92.23
2022-08-05T06:55:36.422Z,90.69
2022-08-05T06:58:30.182Z,89.76
2022-08-05T07:00:50.988Z,90.32
2022-08-05T07:03:17.644Z,89.37
2022-08-05T07:05:46.367Z,89.39
2022-08-05T07:08:13.337Z,90.12
2022-08-05T07:10:53.364Z,90.14
2022-08-05T07:13:57.769Z,90.13
2022-08-05T07:17:58.471Z,89.83
2022-08-05T07:20:05.757Z,89.59
2022-08-05T07:22:17.828Z,90.16
2022-08-05T07:24:52.519Z,89.72
2022-08-05T07:27:20.333Z,88.93
2022-08-05T07:30:21.744Z,88.58
2022-08-05T07:32:36.864Z,90.39
2022-08-05T07:36:01.554Z,89.15
2022-08-05T07:37:57.748Z,88.99
2022-08-05T07:40:33.006Z,87.56
2022-08-05T07:43:04.675Z,88.01
2022-08-05T07:45:56.379Z,89.21
2022-08-05T07:49:00.634Z,88.35
2022-08-05T07:51:23.455Z,87.55
2022-08-05T07:53:59.250Z,86.74
2022-08-05T07:56:59.841Z,87.54
2022-08-05T07:59:15.398Z,87.23
2022-08-05T08:01:52.273Z,86.29
2022-08-05T08:04:38.144Z,86.14
2022-08-05T08:07:07.464Z,86.21
2022-08-05T08:09:37.544Z,86.89
2022-08-05T08:12:14.353Z,86.38
2022-08-05T08:14:47.808Z,87.03
2022-08-05T08:17:16.077Z,85.80
2022-08-05T08:20:20.973Z,85.61
2022-08-05T08:22:35.327Z,86.53
2022-08-05T08:25:03.413Z,85.36
2022-08-05T08:27:44.768Z,84.06
2022-08-05T08:30:29.918Z,84.49
2022-08-05T08:33:02.483Z,83.31
2022-08-05T08:35:34.791Z,82.99
2022-08-05T08:38:07.658Z,84.05
2022-08-05T08:40:35.299Z,84.86
2022-08-05T08:44:56.523Z,84.98
2022-08-05T08:45:53.114Z,85.53
2022-08-05T08:48:37.998Z,85.82
2022-08-05T08:52:02.121Z,84.98
2022-08-05T08:53:54.141Z,84.10
2022-08-05T08:56:22.183Z,85.30
2022-08-05T08:58:49.591Z,85.72
2022-08-05T09:01:19.146Z,85.50
2022-08-05T09:03:52.872Z,85.89
2022-08-05T09:06:24.280Z,84.50
2022-08-05T09:08:55.043Z,84.40
2022-08-05T09:11:51.090Z,84.51
2022-08-05T09:14:56.727Z,83.80
2022-08-05T09:16:59.927Z,84.43
2022-08-05T09:19:28.033Z,83.19
2022-08-05T09:22:23.457Z,83.29
2022-08-05T09:24:58.542Z,82.39
2022-08-05T09:28:05.496Z,83.10
2022-08-05T09:30:24.161Z,82.77
2022-08-05T09:32:51.612Z,82.99
2022-08-05T09:35:26.509Z,82.02
2022-08-05T09:38:17.020Z,81.32
2022-08-05T09:40:52.571Z,81.32
2022-08-05T09:43:41.277Z,80.05
2022-08-05T09:46:27.306Z,78.59
2022-08-05T09:49:06.771Z,77.71
2022-08-05T09:51:38.187Z,77.20
2022-08-05T09:54:08.535Z,77.01
2022-08-05T09:56:38.169Z,75.03
2022-08-05T09:59:07.237Z,73.86
2022-08-05T10:01:36.320Z,74.61
2022-08-05T10:04:13.781Z,74.96
2022-08-05T10:06:58.944Z,73.90
2022-08-05T10:09:29.552Z,73.62
2022-08-05T10:12:30.392Z,73.31
2022-08-05T10:15:20.137Z,72.93
2022-08-05T10:18:09.328Z,72.62
2022-08-05T10:20:41.796Z,73.65
2022-08-05T10:23:34.658Z,73.18
2022-08-05T10:26:00.025Z,72.65
2022-08-05T10:28:29.087Z,72.40
2022-08-05T10:32:53.300Z,71.65
2022-08-05T10:33:46.179Z,71.10
2022-08-05T10:36:23.448Z,70.74
2022-08-05T10:38:58.984Z,68.66
2022-08-05T10:41:46.496Z,69.58
2022-08-05T10:44:18.697Z,69.54
2022-08-05T10:46:51.029Z,70.25
2022-08-05T10:49:26.832Z,69.74
2022-08-05T10:52:00.312Z,68.54
2022-08-05T10:54:56.083Z,67.40
2022-08-05T10:57:29.409Z,67.30
2022-08-05T11:00:23.126Z,66.54
2022-08-05T11:02:59.035Z,66.23
2022-08-05T11:06:03.805Z,65.87
2022-08-05T11:08:39.329Z,66.02
2022-08-05T11:11:52.836Z,64.88
2022-08-05T11:17:59.193Z,63.90
2022-08-05T11:20:36.740Z,62.94
2022-08-05T11:23:25.416Z,64.59
2022-08-05T11:26:11.965Z,63.77
2022-08-05T11:28:43.163Z,64.78
2022-08-05T11:31:10.247Z,64.78
2022-08-05T11:33:46.527Z,64.96
2022-08-05T11:36:52.790Z,64.67
2022-08-05T11:39:49.373Z,63.86
2022-08-05T11:42:24.180Z,64.25
2022-08-05T11:47:49.951Z,64.37
2022-08-05T11:50:14.308Z,63.46
2022-08-05T11:52:41.674Z,63.00
2022-08-05T11:55:11.448Z,63.17
2022-08-05T11:58:10.385Z,63.39
2022-08-05T12:00:32.512Z,62.89
2022-08-05T12:03:28.586Z,64.09
2022-08-05T12:06:06.457Z,63.04
2022-08-05T12:08:49.754Z,62.76
2022-08-05T12:11:22.946Z,62.46
2022-08-05T12:13:58.737Z,61.38
2022-08-05T12:16:45.237Z,61.97
2022-08-05T12:20:26.398Z,62.55
2022-08-05T12:21:59.313Z,62.88
2022-08-05T12:24:28.019Z,61.97
2022-08-05T12:26:54.687Z,60.83
2022-08-05T12:29:26.937Z,60.33
2022-08-05T12:31:54.678Z,59.13
2022-08-05T12:34:26.755Z,57.77
2022-08-05T12:36:54.832Z,58.55
2022-08-05T12:39:28.182Z,58.51
2022-08-05T12:42:08.993Z,59.10
2022-08-05T12:44:35.903Z,59.55
2022-08-05T12:47:03.630Z,59.95
2022-08-05T12:50:02.017Z,60.71
2022-08-05T12:52:35.269Z,60.10
2022-08-05T12:55:25.536Z,60.04
2022-08-05T12:58:38.350Z,60.34
2022-08-05T13:01:59.713Z,60.28
2022-08-05T13:03:41.668Z,61.42
2022-08-05T13:06:16.362Z,61.10
2022-08-05T13:08:49.108Z,60.20
2022-08-05T13:11:57.963Z,57.65
2022-08-05T13:14:19.672Z,57.72
2022-08-05T13:16:57.601Z,57.06
2022-08-05T13:19:27.126Z,58.79
2022-08-05T13:22:14.080Z,58.11
2022-08-05T13:24:58.092Z,58.27
2022-08-05T13:27:37.718Z,58.20
2022-08-05T13:30:35.399Z,56.48
2022-08-05T13:32:54.208Z,57.16
2022-08-05T13:35:31.204Z,56.32
2022-08-05T13:38:11.529Z,56.45
2022-08-05T13:40:51.678Z,56.91
2022-08-05T13:43:22.006Z,57.37
2022-08-05T13:45:49.181Z,57.53
2022-08-05T13:48:58.484Z,57.35
2022-08-05T13:51:09.895Z,57.76
2022-08-05T13:53:48.058Z,57.48
2022-08-05T13:56:18.488Z,56.74
2022-08-05T13:58:53.342Z,56.59
2022-08-05T14:01:25.912Z,55.48
2022-08-05T14:04:38.816Z,56.25
2022-08-05T14:07:12.152Z,56.00
2022-08-05T14:09:52.405Z,54.87
2022-08-05T14:12:32.035Z,54.50
2022-08-05T14:15:05.959Z,52.46
2022-08-05T14:17:48.728Z,52.91
2022-08-05T14:20:17.485Z,50.93
2022-08-05T14:22:49.953Z,51.16
2022-08-05T14:25:22.005Z,51.54
2022-08-05T14:27:49.610Z,50.91
2022-08-05T14:30:20.249Z,50.35
2022-08-05T14:32:47.916Z,50.70
2022-08-05T14:35:14.589Z,50.32
2022-08-05T14:37:45.651Z,49.19
2022-08-05T14:40:16.897Z,48.19
2022-08-05T14:42:44.236Z,48.37
2022-08-05T14:45:13.647Z,47.83
2022-08-05T14:48:05.119Z,46.56
2022-08-05T14:50:31.057Z,46.37
2022-08-05T14:53:00.784Z,45.34
2022-08-05T14:55:28.563Z,44.38
2022-08-05T14:58:11.124Z,44.26
2022-08-05T15:00:39.792Z,43.74
2022-08-05T15:03:34.000Z,43.55
2022-08-05T15:06:08.410Z,43.52
2022-08-05T15:08:59.752Z,42.56
2022-08-05T15:11:51.828Z,42.79
2022-08-05T15:14:20.272Z,42.02
2022-08-05T15:17:01.170Z,41.21
2022-08-05T15:19:30.110Z,41.08
2022-08-05T15:21:57.993Z,40.84
2022-08-05T15:24:30.303Z,39.90
2022-08-05T15:27:01.259Z,40.38
2022-08-05T15:29:30.564Z,41.20
2022-08-05T15:32:09.015Z,41.19
2022-08-05T15:34:35.866Z,40.90
2022-08-05T15:37:06.828Z,40.55
2022-08-05T15:40:59.706Z,40.60
2022-08-05T15:42:50.065Z,40.75
2022-08-05T15:45:15.995Z,40.86
2022-08-05T15:47:43.571Z,40.32
2022-08-05T15:50:15.468Z,40.26
2022-08-05T15:52:52.886Z,40.64
2022-08-05T15:55:24.858Z,40.67
2022-08-05T15:58:08.035Z,40.79
2022-08-05T16:00:50.376Z,41.10
2022-08-05T16:03:21.467Z,41.17
2022-08-05T16:05:52.452Z,40.11
2022-08-05T16:08:19.492Z,39.70
2022-08-05T16:10:46.342Z,39.51
2022-08-05T16:13:19.393Z,39.20
2022-08-05T16:15:51.920Z,38.52
2022-08-05T16:18:18.911Z,38.78
2022-08-05T16:20:46.359Z,38.37
2022-08-05T16:23:13.101Z,38.81
2022-08-05T16:25:40.334Z,39.04
2022-08-05T16:28:09.790Z,39.14
2022-08-05T16:30:37.519Z,38.49
2022-08-05T16:33:04.575Z,38.45
2022-08-05T16:35:32.588Z,38.38
2022-08-05T16:38:16.394Z,38.43
2022-08-05T16:40:55.186Z,38.53
2022-08-05T16:43:30.250Z,38.86
2022-08-05T16:46:04.522Z,38.60
2022-08-05T16:48:36.385Z,38.13
2022-08-05T16:51:08.649Z,39.23
2022-08-05T16:54:05.212Z,39.18
2022-08-05T16:56:26.082Z,40.44
2022-08-05T16:58:52.846Z,39.38
2022-08-05T17:01:20.313Z,39.25
2022-08-05T17:03:47.442Z,39.48
2022-08-05T17:06:16.636Z,39.21
2022-08-05T17:08:53.189Z,40.19
2022-08-05T17:11:25.742Z,39.69
2022-08-05T17:14:00.509Z,39.44
2022-08-05T17:16:37.169Z,39.27
2022-08-05T17:19:09.354Z,39.06
2022-08-05T17:21:37.487Z,38.40
2022-08-05T17:24:18.450Z,38.23
2022-08-05T17:26:53.570Z,38.82
2022-08-05T17:29:32.840Z,39.14
2022-08-05T17:32:06.729Z,39.11
2022-08-05T17:34:35.407Z,39.82
2022-08-05T17:37:02.070Z,39.50
2022-08-05T17:39:34.733Z,38.57
2022-08-05T17:42:18.133Z,39.38
2022-08-05T17:44:50.465Z,40.03
2022-08-05T17:47:23.075Z,40.31
2022-08-05T17:50:04.102Z,41.08
2022-08-05T17:52:52.874Z,40.39
2022-08-05T17:55:22.474Z,40.69
2022-08-05T17:57:54.292Z,41.06
2022-08-05T18:00:20.966Z,41.15
2022-08-05T18:02:55.216Z,41.25
2022-08-05T18:05:22.060Z,41.73
2022-08-05T18:07:48.897Z,41.95
2022-08-05T18:10:21.177Z,41.81
2022-08-05T18:12:49.360Z,42.10
2022-08-05T18:15:16.217Z,42.82
2022-08-05T18:18:01.034Z,42.82
2022-08-05T18:20:31.940Z,43.15
2022-08-05T18:23:09.374Z,43.41
2022-08-05T18:25:38.895Z,43.70
2022-08-05T18:28:06.652Z,44.16
2022-08-05T18:30:34.434Z,44.34
2022-08-05T18:33:01.924Z,44.13
2022-08-05T18:35:59.804Z,43.91
2022-08-05T18:38:19.281Z,43.61
2022-08-05T18:41:53.172Z,43.85
2022-08-05T18:43:42.585Z,44.29
2022-08-05T18:46:10.090Z,44.87
2022-08-05T18:48:41.687Z,44.92
2022-08-05T18:52:06.809Z,44.68
2022-08-05T18:54:14.656Z,45.66
2022-08-05T18:56:41.886Z,46.05
2022-08-05T18:59:43.808Z,46.35
2022-08-05T19:02:04.925Z,46.40
2022-08-05T19:05:02.560Z,47.15
2022-08-05T19:07:45.302Z,46.94
2022-08-05T19:10:13.536Z,47.56
2022-08-05T19:12:40.489Z,47.54
2022-08-05T19:15:36.753Z,47.69
2022-08-05T19:18:10.325Z,47.62
2022-08-05T19:20:41.401Z,48.28
2022-08-05T19:24:06.053Z,48.59
2022-08-05T19:26:01.084Z,48.85
2022-08-05T19:28:30.810Z,49.22
2022-08-05T19:30:57.703Z,48.94
2022-08-05T19:33:34.002Z,50.02
2022-08-05T19:36:06.067Z,50.44
2022-08-05T19:38:36.774Z,51.25
2022-08-05T19:41:09.057Z,51.79
2022-08-05T19:44:06.850Z,52.69
2022-08-05T19:46:29.446Z,53.72
2022-08-05T19:49:02.869Z,54.63
2022-08-05T19:51:56.447Z,55.67
2022-08-05T19:54:21.670Z,55.67
2022-08-05T19:56:54.272Z,56.07
2022-08-05T19:59:53.973Z,56.54
2022-08-05T20:02:10.693Z,56.82
2022-08-05T20:04:38.026Z,57.49
2022-08-05T20:07:13.382Z,57.67
2022-08-05T20:09:54.602Z,57.37
2022-08-05T20:12:24.906Z,57.53
2022-08-05T20:14:52.844Z,58.13
2022-08-05T20:17:23.453Z,58.15
2022-08-05T20:19:51.979Z,58.36
2022-08-05T20:22:26.763Z,58.21
2022-08-05T20:24:54.851Z,58.35
2022-08-05T20:27:26.802Z,59.00
2022-08-05T20:29:58.531Z,58.82
2022-08-05T20:32:27.173Z,59.09
2022-08-05T20:34:54.652Z,59.21
2022-08-05T20:38:06.742Z,59.85
2022-08-05T20:40:09.706Z,59.45
2022-08-05T20:42:36.491Z,59.83
2022-08-05T20:45:04.515Z,58.87
2022-08-05T20:47:33.274Z,59.48
2022-08-05T20:50:01.955Z,59.43
2022-08-05T20:52:29.956Z,59.51
2022-08-05T20:55:55.201Z,59.46
2022-08-05T20:57:44.989Z,59.78
2022-08-05T21:00:34.996Z,59.86
2022-08-05T21:03:07.345Z,59.94
2022-08-05T21:05:48.199Z,58.19
2022-08-05T21:08:26.780Z,57.84
2022-08-05T21:11:09.046Z,57.82
2022-08-05T21:14:02.250Z,57.18
2022-08-05T21:16:30.884Z,56.93
2022-08-05T21:19:01.742Z,56.26
2022-08-05T21:21:38.805Z,56.17
2022-08-05T21:24:12.720Z,56.30
2022-08-05T21:26:41.462Z,56.56
2022-08-05T21:29:12.647Z,57.24
2022-08-05T21:31:46.579Z,57.26
2022-08-05T21:34:17.744Z,57.17
2022-08-05T21:36:49.083Z,57.81
2022-08-05T21:39:16.978Z,57.78
2022-08-05T21:42:01.211Z,58.12
2022-08-05T21:44:31.092Z,57.82
2022-08-05T21:47:01.753Z,58.10
2022-08-05T21:50:00.092Z,58.43
2022-08-05T21:52:27.695Z,59.01
2022-08-05T21:54:57.124Z,59.09
2022-08-05T21:57:32.653Z,58.80
2022-08-05T22:00:06.116Z,59.40
2022-08-05T22:02:43.030Z,58.91
2022-08-05T22:05:11.708Z,58.77
2022-08-05T22:07:59.546Z,59.08
2022-08-05T22:10:31.058Z,58.85
2022-08-05T22:13:08.820Z,59.61
2022-08-05T22:16:01.813Z,58.91
2022-08-05T22:18:25.617Z,59.13
2022-08-05T22:20:53.206Z,59.26
2022-08-05T22:24:00.824Z,59.52
2022-08-05T22:26:50.016Z,59.77
2022-08-05T22:29:26.867Z,59.72
2022-08-05T22:31:59.715Z,59.83
2022-08-05T22:34:31.302Z,59.82
2022-08-05T22:36:59.310Z,60.12
2022-08-05T22:39:33.252Z,60.12
2022-08-05T22:42:11.799Z,60.40
2022-08-05T22:44:48.552Z,60.45
2022-08-05T22:47:30.107Z,60.61
2022-08-05T22:50:19.893Z,60.14
2022-08-05T22:52:45.750Z,59.99
2022-08-05T22:55:19.103Z,59.82
2022-08-05T22:57:49.017Z,60.74
2022-08-05T23:00:17.885Z,60.85
2022-08-05T23:02:48.134Z,60.80
2022-08-05T23:05:16.189Z,60.78
2022-08-05T23:07:48.673Z,60.26
2022-08-05T23:10:20.305Z,60.84
2022-08-05T23:12:55.183Z,60.32
2022-08-05T23:15:29.419Z,60.33
2022-08-05T23:18:03.621Z,60.10
2022-08-05T23:20:37.525Z,60.76
2022-08-05T23:23:08.024Z,60.83
2022-08-05T23:25:52.961Z,61.69
2022-08-05T23:28:27.684Z,61.74
2022-08-05T23:31:16.062Z,62.22
2022-08-05T23:34:03.764Z,62.06
2022-08-05T23:36:38.443Z,62.66
2022-08-05T23:39:05.741Z,63.20
2022-08-05T23:41:41.113Z,63.50
2022-08-05T23:44:16.613Z,63.67
2022-08-05T23:46:43.831Z,63.78
2022-08-05T23:49:16.116Z,64.33
2022-08-05T23:52:05.766Z,63.90
2022-08-05T23:54:38.084Z,63.80
2022-08-05T23:57:06.030Z,63.93
2022-08-05T23:59:37.620Z,64.02
